CCGS Samuel Risley — CG2960 — position and weather

sailwx.info

Track history (hours):
 
Tides and Currents Weather Stations Pressure Air Temp Water Temp Dewpoint Dewpoint Depression Visibility Wind Speed Wind Dir Waves Ship Positions

CCGS Samuel Risley (Canada)

Medium Navaids Tender - Light Icebreaker

Last reported at 2014-Dec-16 00:00 UTC. Time now 2014-Dec-22 19:50 UTC.
Position N 42°54' W 082°24'.

Length 69.73 m; beam 13.7 m; draft 5.2 m.

Type: SAR. MMSI: 316001890.

Wind from 160 at 9 knots

Barometer 1014.1 mb
Air temperature 7.2 ° C
Dewpoint 5.1 ° C

Date/timePositionNaut miles runAvg speedWind from/ knotsBaromVisibWave heightAir tempDewpointWater temp
2014-Dec-16 00:00N 42°54' W 082°24'0 0.0 160 / 91014.1 7.2 5.1
2014-Dec-15 23:00N 42°54' W 082°24'0 0.0 160 / 51014.7 7.4 5.2
2014-Dec-15 22:00N 42°54' W 082°24'0 0.0 170 / 41015.0 7.6 5.6
2014-Dec-15 21:00N 42°54' W 082°24'0 0.0 180 / 31015.1 7.1 5.9
2014-Dec-15 20:00N 42°54' W 082°24'0 0.0 180 / 41015.0 7.0 6.0
2014-Dec-15 19:00N 42°54' W 082°24'0 0.0 180 / 21015.5 6.6 5.9
2014-Dec-15 18:00N 42°54' W 082°24'0 0.0 1016.0 6.7 6.4
2014-Dec-15 17:00N 42°54' W 082°24'0 0.0 170 / 21016.9 6.8 6.5
2014-Dec-15 15:00N 42°54' W 082°24'0 0.0 170 / 21017.8 7.0 6.8
2014-Dec-15 14:00N 42°54' W 082°24'0 0.0 180 / 11017.9 6.5 6.3
2014-Dec-15 13:00N 42°54' W 082°24'0 0.0 180 / 21017.8 6.1 5.9
2014-Dec-15 12:00N 42°54' W 082°24'0 0.0 170 / 31017.8 6.5 6.4
2014-Dec-15 11:00N 42°54' W 082°24'0 0.0 170 / 51017.8 6.6 6.5
2014-Dec-15 10:00N 42°54' W 082°24'0 0.0 170 / 31018.2 6.1 5.9
2014-Dec-15 09:00N 42°54' W 082°24'0 0.0 170 / 41018.6 6.2 6.0
2014-Dec-15 08:00N 42°54' W 082°24'0 0.0 160 / 31018.8 6.4 6.2
2014-Dec-15 07:00N 42°54' W 082°24'0 0.0 160 / 21018.7 5.6 5.5
2014-Dec-15 06:00N 42°54' W 082°24'0 0.0 170 / 31019.0 5.8 5.6
2014-Dec-15 05:00N 42°54' W 082°24'0 0.0 160 / 21019.2 5.6 5.5
2014-Dec-15 04:00N 42°54' W 082°24'0 0.0 170 / 21019.2 5.6 5.4
2014-Dec-15 03:00N 42°54' W 082°24'0 0.0 110 / 41019.4 6.3 6.0
2014-Dec-15 02:00N 42°54' W 082°24'0 0.0 080 / 31019.2 5.9 5.7
2014-Dec-15 01:00N 42°54' W 082°24'0 0.0 080 / 41019.1 6.0 5.9 4.3
2014-Dec-15 00:00N 42°54' W 082°24'0 0.0 120 / 21018.8 6.5 6.3 4.0
2014-Dec-14 23:00N 42°54' W 082°24'13 6.4 330 / 21018.7 6.1 6.0 3.7
2014-Dec-14 21:00N 42°42' W 082°30'7 7.4 360 / 2996.7 7.4 7.1 3.6
2014-Dec-14 20:00N 42°36' W 082°36'7 7.5 320 / 41017.3 8.4 6.6 3.6
2014-Dec-14 19:00N 42°30' W 082°42'1110.7 320 / 41017.2 8.4 6.6 2.6
2014-Dec-14 18:00N 42°24' W 082°54'1110.7 270 / 81017.8 9.5 7.4 2.4
2014-Dec-14 17:00N 42°18' W 083°06'1212.0 250 / 71018.1 9.6 7.8 2.5
2014-Dec-14 16:00N 42°06' W 083°06'0 0.0 240 / 41019.0 7.7 6.2 2.2
2014-Dec-14 15:00N 42°06' W 083°06'1212.0 210 / 21018.8 8.4 6.6 2.5
2014-Dec-14 14:00N 42°18' W 083°06'4 4.4 270 / 4 8.0 6.5 2.4
2014-Dec-14 13:00N 42°18' W 083°00'0 0.0 260 / 4 8.0 5.6
2014-Dec-14 12:00N 42°18' W 083°00'0 0.0 260 / 5 7.3 4.9
2014-Dec-14 11:00N 42°18' W 083°00'0 0.0 300 / 8 7.0 4.6
2014-Dec-14 10:00N 42°18' W 083°00'0 0.0 300 / 7 7.4 5.0
2014-Dec-14 09:00N 42°18' W 083°00'0 0.0 290 / 8 7.4 5.3
2014-Dec-14 08:00N 42°18' W 083°00'0 0.0 300 / 7 7.4 5.4
2014-Dec-14 07:00N 42°18' W 083°00'0 0.0 280 / 8 7.0 5.4
2014-Dec-14 06:00N 42°18' W 083°00'0 0.0 290 / 7 6.8 5.3
2014-Dec-14 05:00N 42°18' W 083°00'0 0.0 280 / 10 6.4 5.1
2014-Dec-14 04:00N 42°18' W 083°00'0 0.0 270 / 10 6.1 5.1
2014-Dec-14 03:00N 42°18' W 083°00'189 4.0 260 / 10 5.9 5.0
2014-Dec-12 04:00N 45°18' W 081°42'   330 / 111016.1 0.4-6.1
Track history (hours):
 
Tides and Currents Weather Stations Pressure Air Temp Water Temp Dewpoint Dewpoint Depression Visibility Wind Speed Wind Dir Waves Ship Positions

CCGS Samuel Risley (Canada)

Medium Navaids Tender - Light Icebreaker

Last reported at 2014-Dec-16 00:00 UTC. Time now 2014-Dec-22 19:50 UTC.
Position N 42°54' W 082°24'.

Length 69.73 m; beam 13.7 m; draft 5.2 m.

Type: SAR. MMSI: 316001890.

Wind from 160 at 9 knots

Barometer 1014.1 mb
Air temperature 7.2 ° C
Dewpoint 5.1 ° C

Date/timePositionNaut miles runAvg speedWind from/ knotsBaromVisibWave heightAir tempDewpointWater temp
2014-Dec-16 00:00N 42°54' W 082°24'0 0.0 160 / 91014.1 7.2 5.1
2014-Dec-15 23:00N 42°54' W 082°24'0 0.0 160 / 51014.7 7.4 5.2
2014-Dec-15 22:00N 42°54' W 082°24'0 0.0 170 / 41015.0 7.6 5.6
2014-Dec-15 21:00N 42°54' W 082°24'0 0.0 180 / 31015.1 7.1 5.9
2014-Dec-15 20:00N 42°54' W 082°24'0 0.0 180 / 41015.0 7.0 6.0
2014-Dec-15 19:00N 42°54' W 082°24'0 0.0 180 / 21015.5 6.6 5.9
2014-Dec-15 18:00N 42°54' W 082°24'0 0.0 1016.0 6.7 6.4
2014-Dec-15 17:00N 42°54' W 082°24'0 0.0 170 / 21016.9 6.8 6.5
2014-Dec-15 15:00N 42°54' W 082°24'0 0.0 170 / 21017.8 7.0 6.8
2014-Dec-15 14:00N 42°54' W 082°24'0 0.0 180 / 11017.9 6.5 6.3
2014-Dec-15 13:00N 42°54' W 082°24'0 0.0 180 / 21017.8 6.1 5.9
2014-Dec-15 12:00N 42°54' W 082°24'0 0.0 170 / 31017.8 6.5 6.4
2014-Dec-15 11:00N 42°54' W 082°24'0 0.0 170 / 51017.8 6.6 6.5
2014-Dec-15 10:00N 42°54' W 082°24'0 0.0 170 / 31018.2 6.1 5.9
2014-Dec-15 09:00N 42°54' W 082°24'0 0.0 170 / 41018.6 6.2 6.0
2014-Dec-15 08:00N 42°54' W 082°24'0 0.0 160 / 31018.8 6.4 6.2
2014-Dec-15 07:00N 42°54' W 082°24'0 0.0 160 / 21018.7 5.6 5.5
2014-Dec-15 06:00N 42°54' W 082°24'0 0.0 170 / 31019.0 5.8 5.6
2014-Dec-15 05:00N 42°54' W 082°24'0 0.0 160 / 21019.2 5.6 5.5
2014-Dec-15 04:00N 42°54' W 082°24'0 0.0 170 / 21019.2 5.6 5.4
2014-Dec-15 03:00N 42°54' W 082°24'0 0.0 110 / 41019.4 6.3 6.0
2014-Dec-15 02:00N 42°54' W 082°24'0 0.0 080 / 31019.2 5.9 5.7
2014-Dec-15 01:00N 42°54' W 082°24'0 0.0 080 / 41019.1 6.0 5.9 4.3
2014-Dec-15 00:00N 42°54' W 082°24'0 0.0 120 / 21018.8 6.5 6.3 4.0
2014-Dec-14 23:00N 42°54' W 082°24'13 6.4 330 / 21018.7 6.1 6.0 3.7
2014-Dec-14 21:00N 42°42' W 082°30'7 7.4 360 / 2996.7 7.4 7.1 3.6
2014-Dec-14 20:00N 42°36' W 082°36'7 7.5 320 / 41017.3 8.4 6.6 3.6
2014-Dec-14 19:00N 42°30' W 082°42'1110.7 320 / 41017.2 8.4 6.6 2.6
2014-Dec-14 18:00N 42°24' W 082°54'1110.7 270 / 81017.8 9.5 7.4 2.4
2014-Dec-14 17:00N 42°18' W 083°06'1212.0 250 / 71018.1 9.6 7.8 2.5
2014-Dec-14 16:00N 42°06' W 083°06'0 0.0 240 / 41019.0 7.7 6.2 2.2
2014-Dec-14 15:00N 42°06' W 083°06'1212.0 210 / 21018.8 8.4 6.6 2.5
2014-Dec-14 14:00N 42°18' W 083°06'4 4.4 270 / 4 8.0 6.5 2.4
2014-Dec-14 13:00N 42°18' W 083°00'0 0.0 260 / 4 8.0 5.6
2014-Dec-14 12:00N 42°18' W 083°00'0 0.0 260 / 5 7.3 4.9
2014-Dec-14 11:00N 42°18' W 083°00'0 0.0 300 / 8 7.0 4.6
2014-Dec-14 10:00N 42°18' W 083°00'0 0.0 300 / 7 7.4 5.0
2014-Dec-14 09:00N 42°18' W 083°00'0 0.0 290 / 8 7.4 5.3
2014-Dec-14 08:00N 42°18' W 083°00'0 0.0 300 / 7 7.4 5.4
2014-Dec-14 07:00N 42°18' W 083°00'0 0.0 280 / 8 7.0 5.4
2014-Dec-14 06:00N 42°18' W 083°00'0 0.0 290 / 7 6.8 5.3
2014-Dec-14 05:00N 42°18' W 083°00'0 0.0 280 / 10 6.4 5.1
2014-Dec-14 04:00N 42°18' W 083°00'0 0.0 270 / 10 6.1 5.1
2014-Dec-14 03:00N 42°18' W 083°00'189 4.0 260 / 10 5.9 5.0
2014-Dec-12 04:00N 45°18' W 081°42'   330 / 111016.1 0.4-6.1

Dump ship's entire track history